sensor_id;sensor_type;location;lat;lon;timestamp;pressure;altitude;pressure_sealevel;temperature;humidity
39455;BME280;25155;41.890;23.446;2024-02-26T00:01:14;91497.06;;;8.22;67.64
39455;BME280;25155;41.890;23.446;2024-02-26T00:03:43;91498.13;;;8.21;67.86
39455;BME280;25155;41.890;23.446;2024-02-26T00:06:11;91500.72;;;8.21;67.63
39455;BME280;25155;41.890;23.446;2024-02-26T00:08:38;91496.03;;;8.18;68.00
39455;BME280;25155;41.890;23.446;2024-02-26T00:11:05;91497.59;;;8.19;67.61
39455;BME280;25155;41.890;23.446;2024-02-26T00:13:32;91492.91;;;8.21;67.87
39455;BME280;25155;41.890;23.446;2024-02-26T00:16:00;91494.97;;;8.24;67.54
39455;BME280;25155;41.890;23.446;2024-02-26T00:18:27;91491.31;;;8.25;67.79
39455;BME280;25155;41.890;23.446;2024-02-26T00:20:56;91490.28;;;8.21;67.26
39455;BME280;25155;41.890;23.446;2024-02-26T00:23:23;91484.03;;;8.22;67.39
39455;BME280;25155;41.890;23.446;2024-02-26T00:25:50;91482.47;;;8.21;66.90
39455;BME280;25155;41.890;23.446;2024-02-26T00:28:17;91480.94;;;8.20;67.38
39455;BME280;25155;41.890;23.446;2024-02-26T00:30:45;91481.97;;;8.19;67.20
39455;BME280;25155;41.890;23.446;2024-02-26T00:33:14;91479.63;;;8.17;66.63
39455;BME280;25155;41.890;23.446;2024-02-26T00:35:41;91473.38;;;8.18;67.00
39455;BME280;25155;41.890;23.446;2024-02-26T00:38:10;91471.31;;;8.15;66.46
39455;BME280;25155;41.890;23.446;2024-02-26T00:40:37;91472.38;;;8.09;66.84
39455;BME280;25155;41.890;23.446;2024-02-26T00:43:05;91473.72;;;8.06;66.99
39455;BME280;25155;41.890;23.446;2024-02-26T00:45:33;91477.66;;;7.98;66.96
39455;BME280;25155;41.890;23.446;2024-02-26T00:48:00;91478.75;;;7.92;66.71
39455;BME280;25155;41.890;23.446;2024-02-26T00:50:31;91481.88;;;7.89;66.72
39455;BME280;25155;41.890;23.446;2024-02-26T00:52:58;91478.78;;;7.87;66.70
39455;BME280;25155;41.890;23.446;2024-02-26T00:55:27;91480.59;;;7.87;66.61
39455;BME280;25155;41.890;23.446;2024-02-26T00:57:55;91472.00;;;7.86;67.02
39455;BME280;25155;41.890;23.446;2024-02-26T01:00:22;91469.13;;;7.88;66.46
39455;BME280;25155;41.890;23.446;2024-02-26T01:02:50;91464.44;;;7.90;66.87
39455;BME280;25155;41.890;23.446;2024-02-26T01:05:17;91466.25;;;7.89;66.55
39455;BME280;25155;41.890;23.446;2024-02-26T01:07:44;91464.19;;;7.91;66.88
39455;BME280;25155;41.890;23.446;2024-02-26T01:10:11;91467.56;;;7.92;67.04
39455;BME280;25155;41.890;23.446;2024-02-26T01:12:40;91467.81;;;7.90;66.81
39455;BME280;25155;41.890;23.446;2024-02-26T01:15:08;91468.59;;;7.91;66.70
39455;BME280;25155;41.890;23.446;2024-02-26T01:17:35;91468.84;;;7.89;66.72
39455;BME280;25155;41.890;23.446;2024-02-26T01:20:02;91471.47;;;7.89;66.38
39455;BME280;25155;41.890;23.446;2024-02-26T01:22:30;91473.28;;;7.89;66.26
39455;BME280;25155;41.890;23.446;2024-02-26T01:24:57;91461.88;;;7.85;66.36
39455;BME280;25155;41.890;23.446;2024-02-26T01:27:24;91468.16;;;7.78;67.10
39455;BME280;25155;41.890;23.446;2024-02-26T01:29:54;91458.25;;;7.75;67.17
39455;BME280;25155;41.890;23.446;2024-02-26T01:32:21;91459.81;;;7.76;67.08
39455;BME280;25155;41.890;23.446;2024-02-26T01:34:49;91465.03;;;7.76;67.02
39455;BME280;25155;41.890;23.446;2024-02-26T01:37:16;91455.91;;;7.74;66.60
39455;BME280;25155;41.890;23.446;2024-02-26T01:39:43;91459.06;;;7.71;66.81
39455;BME280;25155;41.890;23.446;2024-02-26T01:42:10;91456.75;;;7.64;67.07
39455;BME280;25155;41.890;23.446;2024-02-26T01:44:37;91457.28;;;7.61;67.66
39455;BME280;25155;41.890;23.446;2024-02-26T01:47:07;91446.38;;;7.54;67.21
39455;BME280;25155;41.890;23.446;2024-02-26T01:49:37;91438.06;;;7.52;67.34
39455;BME280;25155;41.890;23.446;2024-02-26T01:52:07;91431.06;;;7.47;67.58
39455;BME280;25155;41.890;23.446;2024-02-26T01:54:37;91425.34;;;7.45;67.60
39455;BME280;25155;41.890;23.446;2024-02-26T01:57:06;91424.06;;;7.42;67.81
39455;BME280;25155;41.890;23.446;2024-02-26T01:59:34;91424.59;;;7.39;68.41
39455;BME280;25155;41.890;23.446;2024-02-26T02:02:06;91419.91;;;7.36;68.36
39455;BME280;25155;41.890;23.446;2024-02-26T02:04:35;91420.44;;;7.38;67.96
39455;BME280;25155;41.890;23.446;2024-02-26T02:07:02;91420.94;;;7.40;68.11
39455;BME280;25155;41.890;23.446;2024-02-26T02:09:30;91418.84;;;7.42;68.12
39455;BME280;25155;41.890;23.446;2024-02-26T02:11:58;91427.94;;;7.40;68.19
39455;BME280;25155;41.890;23.446;2024-02-26T02:14:26;91420.16;;;7.40;68.18
39455;BME280;25155;41.890;23.446;2024-02-26T02:16:53;91424.59;;;7.39;67.99
39455;BME280;25155;41.890;23.446;2024-02-26T02:19:21;91423.31;;;7.37;67.77
39455;BME280;25155;41.890;23.446;2024-02-26T02:21:50;91425.94;;;7.32;68.10
39455;BME280;25155;41.890;23.446;2024-02-26T02:24:17;91406.91;;;7.31;67.50
39455;BME280;25155;41.890;23.446;2024-02-26T02:26:45;91423.59;;;7.25;67.64
39455;BME280;25155;41.890;23.446;2024-02-26T02:29:13;91429.84;;;7.24;67.70
39455;BME280;25155;41.890;23.446;2024-02-26T02:31:41;91416.84;;;7.24;67.51
39455;BME280;25155;41.890;23.446;2024-02-26T02:34:09;91422.31;;;7.22;67.41
39455;BME280;25155;41.890;23.446;2024-02-26T02:36:50;91431.94;;;7.22;66.90
39455;BME280;25155;41.890;23.446;2024-02-26T02:39:18;91429.19;;;6.93;67.51
39455;BME280;25155;41.890;23.446;2024-02-26T02:41:46;91430.94;;;7.13;67.34
39455;BME280;25155;41.890;23.446;2024-02-26T02:44:13;91420.25;;;7.19;67.28
39455;BME280;25155;41.890;23.446;2024-02-26T02:46:40;91432.97;;;7.26;67.27
39455;BME280;25155;41.890;23.446;2024-02-26T02:49:08;91429.31;;;7.32;67.07
39455;BME280;25155;41.890;23.446;2024-02-26T02:51:36;91439.72;;;7.32;66.20
39455;BME280;25155;41.890;23.446;2024-02-26T02:54:05;91440.47;;;7.33;66.38
39455;BME280;25155;41.890;23.446;2024-02-26T02:56:32;91433.44;;;7.33;66.08
39455;BME280;25155;41.890;23.446;2024-02-26T02:59:02;91440.72;;;7.36;66.40
39455;BME280;25155;41.890;23.446;2024-02-26T03:01:29;91439.16;;;7.40;66.43
39455;BME280;25155;41.890;23.446;2024-02-26T03:03:56;91438.63;;;7.44;66.00
39455;BME280;25155;41.890;23.446;2024-02-26T03:06:23;91428.72;;;7.46;65.82
39455;BME280;25155;41.890;23.446;2024-02-26T03:08:53;91434.47;;;7.42;65.64
39455;BME280;25155;41.890;23.446;2024-02-26T03:11:21;91441.25;;;7.44;66.04
39455;BME280;25155;41.890;23.446;2024-02-26T03:13:49;91431.31;;;7.46;66.00
39455;BME280;25155;41.890;23.446;2024-02-26T03:16:17;91436.53;;;7.46;66.03
39455;BME280;25155;41.890;23.446;2024-02-26T03:18:44;91440.16;;;7.45;65.65
39455;BME280;25155;41.890;23.446;2024-02-26T03:21:12;91435.53;;;7.36;66.22
39455;BME280;25155;41.890;23.446;2024-02-26T03:23:39;91426.19;;;7.30;66.85
39455;BME280;25155;41.890;23.446;2024-02-26T03:26:06;91433.47;;;7.28;66.82
39455;BME280;25155;41.890;23.446;2024-02-26T03:28:35;91433.47;;;7.28;66.83
39455;BME280;25155;41.890;23.446;2024-02-26T03:31:04;91422.06;;;7.24;66.67
39455;BME280;25155;41.890;23.446;2024-02-26T03:33:31;91431.41;;;7.25;67.02
39455;BME280;25155;41.890;23.446;2024-02-26T03:35:59;91432.47;;;7.24;67.22
39455;BME280;25155;41.890;23.446;2024-02-26T03:38:26;91427.00;;;7.26;66.81
39455;BME280;25155;41.890;23.446;2024-02-26T03:40:53;91429.06;;;7.29;66.68
39455;BME280;25155;41.890;23.446;2024-02-26T03:43:21;91430.88;;;7.28;66.75
39455;BME280;25155;41.890;23.446;2024-02-26T03:45:50;91423.84;;;7.29;67.09
39455;BME280;25155;41.890;23.446;2024-02-26T03:48:17;91421.22;;;7.34;66.91
39455;BME280;25155;41.890;23.446;2024-02-26T03:50:44;91424.06;;;7.37;66.42
39455;BME280;25155;41.890;23.446;2024-02-26T03:53:11;91427.44;;;7.38;66.86
39455;BME280;25155;41.890;23.446;2024-02-26T03:55:39;91423.31;;;7.37;66.96
39455;BME280;25155;41.890;23.446;2024-02-26T03:58:07;91423.81;;;7.39;66.78
39455;BME280;25155;41.890;23.446;2024-02-26T04:00:35;91418.34;;;7.40;66.12
39455;BME280;25155;41.890;23.446;2024-02-26T04:03:04;91424.34;;;7.36;66.14
39455;BME280;25155;41.890;23.446;2024-02-26T04:05:31;91424.09;;;7.32;66.80
39455;BME280;25155;41.890;23.446;2024-02-26T04:07:58;91423.06;;;7.28;66.90
39455;BME280;25155;41.890;23.446;2024-02-26T04:10:26;91425.16;;;7.26;66.91
39455;BME280;25155;41.890;23.446;2024-02-26T04:12:53;91429.06;;;7.29;66.98
39455;BME280;25155;41.890;23.446;2024-02-26T04:15:20;91422.03;;;7.29;66.67
39455;BME280;25155;41.890;23.446;2024-02-26T04:17:47;91422.28;;;7.28;66.42
39455;BME280;25155;41.890;23.446;2024-02-26T04:20:16;91426.72;;;7.27;66.17
39455;BME280;25155;41.890;23.446;2024-02-26T04:22:43;91409.56;;;7.21;66.31
39455;BME280;25155;41.890;23.446;2024-02-26T04:25:11;91415.03;;;7.19;66.18
39455;BME280;25155;41.890;23.446;2024-02-26T04:27:39;91423.09;;;7.23;66.43
39455;BME280;25155;41.890;23.446;2024-02-26T04:30:07;91430.88;;;7.23;65.86
39455;BME280;25155;41.890;23.446;2024-02-26T04:32:34;91422.56;;;7.21;66.37
39455;BME280;25155;41.890;23.446;2024-02-26T04:35:02;91424.69;;;7.19;65.97
39455;BME280;25155;41.890;23.446;2024-02-26T04:37:31;91420.50;;;7.18;66.33
39455;BME280;25155;41.890;23.446;2024-02-26T04:39:58;91419.72;;;7.17;66.30
39455;BME280;25155;41.890;23.446;2024-02-26T04:42:26;91416.91;;;7.14;66.30
39455;BME280;25155;41.890;23.446;2024-02-26T04:44:54;91420.03;;;7.11;66.06
39455;BME280;25155;41.890;23.446;2024-02-26T04:47:21;91412.22;;;7.11;66.58
39455;BME280;25155;41.890;23.446;2024-02-26T04:49:49;91408.56;;;7.12;66.40
39455;BME280;25155;41.890;23.446;2024-02-26T04:52:16;91417.41;;;7.11;66.45
39455;BME280;25155;41.890;23.446;2024-02-26T04:54:45;91413.78;;;7.07;66.22
39455;BME280;25155;41.890;23.446;2024-02-26T04:57:12;91423.16;;;7.02;66.64
39455;BME280;25155;41.890;23.446;2024-02-26T04:59:40;91412.78;;;6.97;66.82
39455;BME280;25155;41.890;23.446;2024-02-26T05:02:08;91409.66;;;6.95;66.81
39455;BME280;25155;41.890;23.446;2024-02-26T05:04:35;91416.94;;;6.93;66.63
39455;BME280;25155;41.890;23.446;2024-02-26T05:07:03;91420.59;;;6.92;66.88
39455;BME280;25155;41.890;23.446;2024-02-26T05:09:31;91420.63;;;6.87;66.71
39455;BME280;25155;41.890;23.446;2024-02-26T05:12:00;91420.09;;;6.85;66.69
39455;BME280;25155;41.890;23.446;2024-02-26T05:14:27;91420.34;;;6.83;67.07
39455;BME280;25155;41.890;23.446;2024-02-26T05:16:55;91423.47;;;6.80;66.61
39455;BME280;25155;41.890;23.446;2024-02-26T05:19:23;91427.69;;;6.66;67.87
39455;BME280;25155;41.890;23.446;2024-02-26T05:21:50;91425.84;;;6.61;67.52
39455;BME280;25155;41.890;23.446;2024-02-26T05:24:17;91430.03;;;6.62;67.65
39455;BME280;25155;41.890;23.446;2024-02-26T05:26:48;91431.06;;;6.61;67.80
39455;BME280;25155;41.890;23.446;2024-02-26T05:29:17;91440.44;;;6.62;67.28
39455;BME280;25155;41.890;23.446;2024-02-26T05:31:44;91440.69;;;6.66;67.18
39455;BME280;25155;41.890;23.446;2024-02-26T05:34:11;91442.75;;;6.64;67.13
39455;BME280;25155;41.890;23.446;2024-02-26T05:36:38;91449.00;;;6.63;66.98
39455;BME280;25155;41.890;23.446;2024-02-26T05:39:05;91443.28;;;6.61;66.93
39455;BME280;25155;41.890;23.446;2024-02-26T05:41:32;91453.16;;;6.59;67.38
39455;BME280;25155;41.890;23.446;2024-02-26T05:43:59;91445.91;;;6.56;66.90
39455;BME280;25155;41.890;23.446;2024-02-26T05:46:28;91441.47;;;6.51;66.98
39455;BME280;25155;41.890;23.446;2024-02-26T05:48:55;91453.66;;;6.50;67.41
39455;BME280;25155;41.890;23.446;2024-02-26T05:51:22;91454.22;;;6.53;67.44
39455;BME280;25155;41.890;23.446;2024-02-26T05:53:49;91464.34;;;6.54;67.13
39455;BME280;25155;41.890;23.446;2024-02-26T05:56:20;91463.81;;;6.57;67.11
39455;BME280;25155;41.890;23.446;2024-02-26T05:58:47;91466.41;;;6.57;67.44
39455;BME280;25155;41.890;23.446;2024-02-26T06:01:15;91479.41;;;6.57;67.27
39455;BME280;25155;41.890;23.446;2024-02-26T06:03:44;91486.16;;;6.58;67.28
39455;BME280;25155;41.890;23.446;2024-02-26T06:06:11;91492.41;;;6.62;67.34
39455;BME280;25155;41.890;23.446;2024-02-26T06:08:41;91492.69;;;6.61;66.93
39455;BME280;25155;41.890;23.446;2024-02-26T06:11:08;91483.31;;;6.60;67.28
39455;BME280;25155;41.890;23.446;2024-02-26T06:13:35;91485.91;;;6.60;67.22
39455;BME280;25155;41.890;23.446;2024-02-26T06:16:03;91482.03;;;6.62;67.16
39455;BME280;25155;41.890;23.446;2024-02-26T06:18:30;91474.19;;;6.57;67.39
39455;BME280;25155;41.890;23.446;2024-02-26T06:20:59;91481.75;;;6.64;67.50
39455;BME280;25155;41.890;23.446;2024-02-26T06:23:26;91477.34;;;6.64;67.52
39455;BME280;25155;41.890;23.446;2024-02-26T06:25:53;91477.84;;;6.61;67.14
39455;BME280;25155;41.890;23.446;2024-02-26T06:28:20;91472.66;;;6.61;67.27
39455;BME280;25155;41.890;23.446;2024-02-26T06:30:48;91472.66;;;6.61;67.15
39455;BME280;25155;41.890;23.446;2024-02-26T06:33:16;91479.69;;;6.61;67.46
39455;BME280;25155;41.890;23.446;2024-02-26T06:35:43;91478.09;;;6.60;67.26
39455;BME280;25155;41.890;23.446;2024-02-26T06:38:12;91482.28;;;6.61;67.79
39455;BME280;25155;41.890;23.446;2024-02-26T06:40:40;91485.41;;;6.58;68.45
39455;BME280;25155;41.890;23.446;2024-02-26T06:43:07;91496.31;;;6.49;69.01
39455;BME280;25155;41.890;23.446;2024-02-26T06:45:35;91492.66;;;6.45;69.51
39455;BME280;25155;41.890;23.446;2024-02-26T06:48:03;91493.69;;;6.39;70.52
39455;BME280;25155;41.890;23.446;2024-02-26T06:50:30;91499.66;;;6.35;70.91
39455;BME280;25155;41.890;23.446;2024-02-26T06:52:57;91492.38;;;6.37;70.55
39455;BME280;25155;41.890;23.446;2024-02-26T06:55:25;91492.38;;;6.42;70.51
39455;BME280;25155;41.890;23.446;2024-02-26T06:57:53;91486.94;;;6.48;70.71
39455;BME280;25155;41.890;23.446;2024-02-26T07:00:20;91488.25;;;6.56;70.21
39455;BME280;25155;41.890;23.446;2024-02-26T07:02:47;91487.47;;;6.61;70.32
39455;BME280;25155;41.890;23.446;2024-02-26T07:05:14;91479.66;;;6.66;69.95
39455;BME280;25155;41.890;23.446;2024-02-26T07:07:41;91481.50;;;6.71;70.03
39455;BME280;25155;41.890;23.446;2024-02-26T07:10:10;91483.03;;;6.72;70.17
39455;BME280;25155;41.890;23.446;2024-02-26T07:12:40;91485.13;;;6.64;70.52
39455;BME280;25155;41.890;23.446;2024-02-26T07:15:08;91490.06;;;6.66;70.46
39455;BME280;25155;41.890;23.446;2024-02-26T07:17:36;91487.47;;;6.66;70.29
39455;BME280;25155;41.890;23.446;2024-02-26T07:20:03;91484.88;;;6.66;70.90
39455;BME280;25155;41.890;23.446;2024-02-26T07:22:32;91491.09;;;6.60;71.09
39455;BME280;25155;41.890;23.446;2024-02-26T07:24:59;91492.41;;;6.57;71.88
39455;BME280;25155;41.890;23.446;2024-02-26T07:27:26;91499.69;;;6.55;71.77
39455;BME280;25155;41.890;23.446;2024-02-26T07:29:55;91500.72;;;6.59;71.90
39455;BME280;25155;41.890;23.446;2024-02-26T07:32:22;91495.78;;;6.68;71.48
39455;BME280;25155;41.890;23.446;2024-02-26T07:34:49;91492.91;;;6.75;71.31
39455;BME280;25155;41.890;23.446;2024-02-26T07:37:16;91494.22;;;6.82;71.33
39455;BME280;25155;41.890;23.446;2024-02-26T07:39:44;91496.28;;;6.91;70.94
39455;BME280;25155;41.890;23.446;2024-02-26T07:42:11;91493.41;;;6.97;70.61
39455;BME280;25155;41.890;23.446;2024-02-26T07:44:38;91496.50;;;7.04;70.56
39455;BME280;25155;41.890;23.446;2024-02-26T07:47:10;91500.16;;;7.03;70.90
39455;BME280;25155;41.890;23.446;2024-02-26T07:49:37;91505.38;;;7.09;71.02
39455;BME280;25155;41.890;23.446;2024-02-26T07:52:06;91505.88;;;7.11;70.49
39455;BME280;25155;41.890;23.446;2024-02-26T07:54:34;91495.97;;;7.18;70.46
39455;BME280;25155;41.890;23.446;2024-02-26T07:57:01;91499.06;;;7.25;70.70
39455;BME280;25155;41.890;23.446;2024-02-26T07:59:32;91490.19;;;7.31;70.06
39455;BME280;25155;41.890;23.446;2024-02-26T08:01:59;91494.34;;;7.37;70.00
39455;BME280;25155;41.890;23.446;2024-02-26T08:04:30;91490.72;;;7.38;70.21
39455;BME280;25155;41.890;23.446;2024-02-26T08:06:57;91487.56;;;7.47;70.27
39455;BME280;25155;41.890;23.446;2024-02-26T08:09:24;91486.22;;;7.54;69.83
39455;BME280;25155;41.890;23.446;2024-02-26T08:11:52;91488.25;;;7.63;69.70
39455;BME280;25155;41.890;23.446;2024-02-26T08:14:19;91487.69;;;7.71;69.94
39455;BME280;25155;41.890;23.446;2024-02-26T08:16:46;91488.75;;;7.75;69.74
39455;BME280;25155;41.890;23.446;2024-02-26T08:19:13;91486.63;;;7.82;69.56
39455;BME280;25155;41.890;23.446;2024-02-26T08:21:42;91487.34;;;7.88;69.13
39455;BME280;25155;41.890;23.446;2024-02-26T08:24:10;91492.28;;;7.94;69.14
39455;BME280;25155;41.890;23.446;2024-02-26T08:26:37;91486.75;;;8.01;69.39
39455;BME280;25155;41.890;23.446;2024-02-26T08:29:04;91491.44;;;8.04;68.78
39455;BME280;25155;41.890;23.446;2024-02-26T08:31:31;91490.63;;;8.09;68.98
39455;BME280;25155;41.890;23.446;2024-02-26T08:33:59;91482.78;;;8.14;68.93
39455;BME280;25155;41.890;23.446;2024-02-26T08:36:27;91485.88;;;8.21;68.89
39455;BME280;25155;41.890;23.446;2024-02-26T08:38:55;91488.44;;;8.26;68.97
39455;BME280;25155;41.890;23.446;2024-02-26T08:41:22;91480.09;;;8.34;68.61
39455;BME280;25155;41.890;23.446;2024-02-26T08:43:49;91485.00;;;8.41;68.62
39455;BME280;25155;41.890;23.446;2024-02-26T08:46:17;91477.66;;;8.43;68.17
39455;BME280;25155;41.890;23.446;2024-02-26T08:48:45;91470.56;;;8.49;67.73
39455;BME280;25155;41.890;23.446;2024-02-26T08:51:12;91471.31;;;8.55;67.40
39455;BME280;25155;41.890;23.446;2024-02-26T08:53:39;91468.19;;;8.58;67.65
39455;BME280;25155;41.890;23.446;2024-02-26T08:56:08;91469.44;;;8.60;66.85
39455;BME280;25155;41.890;23.446;2024-02-26T08:58:36;91457.16;;;8.66;67.16
39455;BME280;25155;41.890;23.446;2024-02-26T09:01:04;91462.59;;;8.69;66.87
39455;BME280;25155;41.890;23.446;2024-02-26T09:03:31;91464.38;;;8.74;66.63
39455;BME280;25155;41.890;23.446;2024-02-26T09:05:58;91459.13;;;8.79;65.67
39455;BME280;25155;41.890;23.446;2024-02-26T09:08:25;91460.66;;;8.80;65.83
39455;BME280;25155;41.890;23.446;2024-02-26T09:10:52;91449.69;;;8.83;65.65
39455;BME280;25155;41.890;23.446;2024-02-26T09:13:21;91455.13;;;8.87;65.63
39455;BME280;25155;41.890;23.446;2024-02-26T09:15:48;91457.94;;;8.96;65.61
39455;BME280;25155;41.890;23.446;2024-02-26T09:18:15;91453.16;;;9.03;64.44
39455;BME280;25155;41.890;23.446;2024-02-26T09:20:42;91457.31;;;9.04;63.15
39455;BME280;25155;41.890;23.446;2024-02-26T09:23:09;91445.81;;;9.05;62.72
39455;BME280;25155;41.890;23.446;2024-02-26T09:25:37;91452.53;;;9.11;63.73
39455;BME280;25155;41.890;23.446;2024-02-26T09:28:04;91448.84;;;9.17;63.66
39455;BME280;25155;41.890;23.446;2024-02-26T09:30:33;91451.38;;;9.22;63.64
39455;BME280;25155;41.890;23.446;2024-02-26T09:33:00;91452.03;;;9.33;63.74
39455;BME280;25155;41.890;23.446;2024-02-26T09:35:28;91452.25;;;9.37;63.33
39455;BME280;25155;41.890;23.446;2024-02-26T09:37:56;91451.91;;;9.43;63.94
39455;BME280;25155;41.890;23.446;2024-02-26T09:40:23;91448.69;;;9.52;63.43
39455;BME280;25155;41.890;23.446;2024-02-26T09:42:55;91449.53;;;9.47;61.72
39455;BME280;25155;41.890;23.446;2024-02-26T09:45:26;91450.47;;;9.56;62.42
39455;BME280;25155;41.890;23.446;2024-02-26T09:47:56;91448.34;;;9.58;61.65
39455;BME280;25155;41.890;23.446;2024-02-26T09:50:24;91449.91;;;9.59;59.94
39455;BME280;25155;41.890;23.446;2024-02-26T09:52:52;91441.53;;;9.62;60.83
39455;BME280;25155;41.890;23.446;2024-02-26T09:55:19;91437.22;;;9.72;60.78
39455;BME280;25155;41.890;23.446;2024-02-26T09:57:48;91434.00;;;9.80;60.50
39455;BME280;25155;41.890;23.446;2024-02-26T10:00:19;91433.59;;;9.92;61.26
39455;BME280;25155;41.890;23.446;2024-02-26T10:02:48;91431.88;;;10.01;61.44
39455;BME280;25155;41.890;23.446;2024-02-26T10:05:18;91431.53;;;10.08;61.51
39455;BME280;25155;41.890;23.446;2024-02-26T10:07:45;91429.75;;;10.22;62.05
39455;BME280;25155;41.890;23.446;2024-02-26T10:10:14;91421.47;;;10.34;61.60
39455;BME280;25155;41.890;23.446;2024-02-26T10:12:41;91417.66;;;10.45;62.00
39455;BME280;25155;41.890;23.446;2024-02-26T10:15:08;91417.66;;;10.59;61.83
39455;BME280;25155;41.890;23.446;2024-02-26T10:17:36;91401.31;;;10.67;60.73
39455;BME280;25155;41.890;23.446;2024-02-26T10:20:15;91403.34;;;10.70;61.06
39455;BME280;25155;41.890;23.446;2024-02-26T10:22:45;91406.31;;;10.83;61.07
39455;BME280;25155;41.890;23.446;2024-02-26T10:25:12;91398.75;;;10.95;60.77
39455;BME280;25155;41.890;23.446;2024-02-26T10:27:40;91390.22;;;11.03;60.53
39455;BME280;25155;41.890;23.446;2024-02-26T10:30:16;91391.69;;;11.09;60.28
39455;BME280;25155;41.890;23.446;2024-02-26T10:32:45;91388.28;;;11.23;59.89
39455;BME280;25155;41.890;23.446;2024-02-26T10:35:12;91390.44;;;11.35;58.81
39455;BME280;25155;41.890;23.446;2024-02-26T10:37:40;91381.78;;;11.48;58.32
39455;BME280;25155;41.890;23.446;2024-02-26T10:40:11;91375.28;;;11.59;57.66
39455;BME280;25155;41.890;23.446;2024-02-26T10:42:39;91373.19;;;11.70;56.63
39455;BME280;25155;41.890;23.446;2024-02-26T10:45:08;91373.78;;;11.81;56.96
39455;BME280;25155;41.890;23.446;2024-02-26T10:47:36;91371.69;;;11.92;56.16
39455;BME280;25155;41.890;23.446;2024-02-26T10:50:05;91373.44;;;11.96;56.01
39455;BME280;25155;41.890;23.446;2024-02-26T10:52:34;91370.38;;;12.03;54.92
39455;BME280;25155;41.890;23.446;2024-02-26T10:55:02;91370.88;;;12.05;51.75
39455;BME280;25155;41.890;23.446;2024-02-26T10:57:33;91369.03;;;12.06;52.88
39455;BME280;25155;41.890;23.446;2024-02-26T11:00:04;91377.06;;;12.09;52.07
39455;BME280;25155;41.890;23.446;2024-02-26T11:02:32;91366.47;;;12.14;51.67
39455;BME280;25155;41.890;23.446;2024-02-26T11:05:02;91363.84;;;12.14;48.03
39455;BME280;25155;41.890;23.446;2024-02-26T11:07:30;91358.44;;;12.11;48.38
39455;BME280;25155;41.890;23.446;2024-02-26T11:09:59;91366.66;;;12.18;49.37
39455;BME280;25155;41.890;23.446;2024-02-26T11:12:29;91371.59;;;12.19;47.98
39455;BME280;25155;41.890;23.446;2024-02-26T11:14:59;91361.09;;;12.19;47.64
39455;BME280;25155;41.890;23.446;2024-02-26T11:17:28;91360.50;;;12.23;46.91
39455;BME280;25155;41.890;23.446;2024-02-26T11:19:58;91364.69;;;12.24;46.89
39455;BME280;25155;41.890;23.446;2024-02-26T11:22:25;91358.66;;;12.23;46.50
39455;BME280;25155;41.890;23.446;2024-02-26T11:24:53;91353.09;;;12.25;47.00
39455;BME280;25155;41.890;23.446;2024-02-26T11:27:25;91354.38;;;12.27;47.46
39455;BME280;25155;41.890;23.446;2024-02-26T11:29:57;91349.78;;;12.33;47.72
39455;BME280;25155;41.890;23.446;2024-02-26T11:32:26;91350.72;;;12.37;47.07
39455;BME280;25155;41.890;23.446;2024-02-26T11:34:55;91350.59;;;12.42;46.79
39455;BME280;25155;41.890;23.446;2024-02-26T11:37:23;91348.16;;;12.46;46.96
39455;BME280;25155;41.890;23.446;2024-02-26T11:39:52;91338.78;;;12.53;45.86
39455;BME280;25155;41.890;23.446;2024-02-26T11:42:24;91344.03;;;12.53;46.72
39455;BME280;25155;41.890;23.446;2024-02-26T11:44:51;91349.66;;;12.61;45.36
39455;BME280;25155;41.890;23.446;2024-02-26T11:47:22;91345.97;;;12.62;45.55
39455;BME280;25155;41.890;23.446;2024-02-26T11:49:49;91346.53;;;12.58;43.66
39455;BME280;25155;41.890;23.446;2024-02-26T11:52:17;91342.94;;;12.54;43.82
39455;BME280;25155;41.890;23.446;2024-02-26T11:54:46;91345.81;;;12.44;43.38
39455;BME280;25155;41.890;23.446;2024-02-26T11:57:27;91351.19;;;12.16;42.43
39455;BME280;25155;41.890;23.446;2024-02-26T11:59:55;91350.91;;;12.18;43.94
39455;BME280;25155;41.890;23.446;2024-02-26T12:02:49;91346.25;;;12.15;43.61
39455;BME280;25155;41.890;23.446;2024-02-26T12:05:19;91346.75;;;12.17;42.38
39455;BME280;25155;41.890;23.446;2024-02-26T12:07:54;91336.19;;;12.08;42.25
39455;BME280;25155;41.890;23.446;2024-02-26T12:10:24;91336.31;;;12.03;42.68
39455;BME280;25155;41.890;23.446;2024-02-26T12:13:00;91334.34;;;12.09;43.64
39455;BME280;25155;41.890;23.446;2024-02-26T12:15:32;91338.47;;;12.01;42.04
39455;BME280;25155;41.890;23.446;2024-02-26T12:18:04;91341.56;;;12.03;43.32
39455;BME280;25155;41.890;23.446;2024-02-26T12:20:33;91335.88;;;12.10;43.17
39455;BME280;25155;41.890;23.446;2024-02-26T12:23:02;91336.47;;;12.07;41.96
39455;BME280;25155;41.890;23.446;2024-02-26T12:25:30;91339.44;;;12.05;42.26
39455;BME280;25155;41.890;23.446;2024-02-26T12:27:59;91332.03;;;12.07;42.72
39455;BME280;25155;41.890;23.446;2024-02-26T12:30:26;91340.72;;;12.16;43.10
39455;BME280;25155;41.890;23.446;2024-02-26T12:32:55;91324.38;;;12.19;43.16
39455;BME280;25155;41.890;23.446;2024-02-26T12:35:26;91336.13;;;12.22;43.08
39455;BME280;25155;41.890;23.446;2024-02-26T12:37:53;91336.13;;;12.22;42.40
39455;BME280;25155;41.890;23.446;2024-02-26T12:40:21;91337.38;;;12.25;42.40
39455;BME280;25155;41.890;23.446;2024-02-26T12:42:48;91336.31;;;12.26;41.42
39455;BME280;25155;41.890;23.446;2024-02-26T12:45:16;91323.03;;;12.22;41.65
39455;BME280;25155;41.890;23.446;2024-02-26T12:47:44;91332.91;;;12.25;41.43
39455;BME280;25155;41.890;23.446;2024-02-26T12:50:13;91330.31;;;12.25;41.54
39455;BME280;25155;41.890;23.446;2024-02-26T12:52:43;91324.84;;;12.21;41.91
39455;BME280;25155;41.890;23.446;2024-02-26T12:55:14;91332.13;;;12.25;42.14
39455;BME280;25155;41.890;23.446;2024-02-26T12:57:42;91330.22;;;12.16;40.93
39455;BME280;25155;41.890;23.446;2024-02-26T13:00:12;91322.66;;;12.15;40.99
39455;BME280;25155;41.890;23.446;2024-02-26T13:02:41;91316.63;;;12.14;41.34